sensor_id;sensor_type;location;lat;lon;timestamp;P1;durP1;ratioP1;P2;durP2;ratioP2
58874;SDS011;44652;49.040;12.126;2022-11-02T07:03:01;14.57;;;11.85;;
58874;SDS011;44652;49.040;12.126;2022-11-02T07:05:30;16.88;;;11.15;;
58874;SDS011;44652;49.040;12.126;2022-11-02T07:07:58;16.53;;;11.87;;
58874;SDS011;44652;49.040;12.126;2022-11-02T07:10:25;16.52;;;11.48;;
58874;SDS011;44652;49.040;12.126;2022-11-02T07:12:52;16.80;;;10.90;;
58874;SDS011;44652;49.040;12.126;2022-11-02T07:15:21;16.98;;;10.60;;
58874;SDS011;44652;49.040;12.126;2022-11-02T07:17:49;12.30;;;9.65;;
58874;SDS011;44652;49.040;12.126;2022-11-02T07:20:17;12.20;;;9.23;;
58874;SDS011;44652;49.040;12.126;2022-11-02T07:22:51;12.68;;;9.75;;
58874;SDS011;44652;49.040;12.126;2022-11-02T07:25:19;14.50;;;10.35;;
58874;SDS011;44652;49.040;12.126;2022-11-02T07:27:46;20.75;;;11.02;;
58874;SDS011;44652;49.040;12.126;2022-11-02T07:30:12;15.00;;;10.30;;
58874;SDS011;44652;49.040;12.126;2022-11-02T07:32:42;15.05;;;10.50;;
58874;SDS011;44652;49.040;12.126;2022-11-02T07:35:11;19.27;;;11.45;;
58874;SDS011;44652;49.040;12.126;2022-11-02T07:40:06;21.48;;;13.48;;
58874;SDS011;44652;49.040;12.126;2022-11-02T07:42:34;21.25;;;15.15;;
58874;SDS011;44652;49.040;12.126;2022-11-02T07:45:04;25.35;;;16.08;;
58874;SDS011;44652;49.040;12.126;2022-11-02T07:47:31;26.92;;;15.98;;
58874;SDS011;44652;49.040;12.126;2022-11-02T07:49:58;23.42;;;14.93;;
58874;SDS011;44652;49.040;12.126;2022-11-02T07:52:25;24.67;;;14.27;;
58874;SDS011;44652;49.040;12.126;2022-11-02T07:54:52;21.15;;;14.80;;
58874;SDS011;44652;49.040;12.126;2022-11-02T07:57:19;27.73;;;15.65;;
58874;SDS011;44652;49.040;12.126;2022-11-02T07:59:46;20.95;;;13.57;;
58874;SDS011;44652;49.040;12.126;2022-11-02T08:02:12;21.65;;;13.95;;
58874;SDS011;44652;49.040;12.126;2022-11-02T08:04:39;26.15;;;15.88;;
58874;SDS011;44652;49.040;12.126;2022-11-02T08:07:10;23.55;;;16.00;;
58874;SDS011;44652;49.040;12.126;2022-11-02T08:09:37;27.00;;;17.50;;
58874;SDS011;44652;49.040;12.126;2022-11-02T08:12:04;25.25;;;17.13;;
58874;SDS011;44652;49.040;12.126;2022-11-02T08:14:31;35.20;;;17.15;;
58874;SDS011;44652;49.040;12.126;2022-11-02T08:16:58;24.17;;;17.38;;
58874;SDS011;44652;49.040;12.126;2022-11-02T08:19:24;26.00;;;17.73;;
58874;SDS011;44652;49.040;12.126;2022-11-02T08:21:51;24.27;;;15.63;;
58874;SDS011;44652;49.040;12.126;2022-11-02T08:24:18;26.50;;;14.27;;
58874;SDS011;44652;49.040;12.126;2022-11-02T08:31:02;21.15;;;14.85;;
58874;SDS011;44652;49.040;12.126;2022-11-02T08:33:29;23.77;;;15.57;;
58874;SDS011;44652;49.040;12.126;2022-11-02T08:35:59;27.45;;;16.00;;
58874;SDS011;44652;49.040;12.126;2022-11-02T08:38:29;23.40;;;16.67;;
58874;SDS011;44652;49.040;12.126;2022-11-02T08:49:03;27.55;;;17.50;;
58874;SDS011;44652;49.040;12.126;2022-11-02T08:51:30;27.25;;;16.83;;
58874;SDS011;44652;49.040;12.126;2022-11-02T08:53:57;36.90;;;18.83;;
58874;SDS011;44652;49.040;12.126;2022-11-02T08:56:23;38.33;;;20.27;;
58874;SDS011;44652;49.040;12.126;2022-11-02T08:58:50;26.52;;;18.25;;
58874;SDS011;44652;49.040;12.126;2022-11-02T09:01:17;30.65;;;19.05;;
58874;SDS011;44652;49.040;12.126;2022-11-02T09:03:43;29.45;;;17.30;;
58874;SDS011;44652;49.040;12.126;2022-11-02T09:06:10;26.15;;;15.73;;
58874;SDS011;44652;49.040;12.126;2022-11-02T09:08:37;23.02;;;15.43;;
58874;SDS011;44652;49.040;12.126;2022-11-02T09:11:03;22.73;;;15.43;;
58874;SDS011;44652;49.040;12.126;2022-11-02T09:13:30;27.27;;;16.73;;
58874;SDS011;44652;49.040;12.126;2022-11-02T09:15:57;25.17;;;15.13;;
58874;SDS011;44652;49.040;12.126;2022-11-02T09:18:25;22.40;;;14.30;;
58874;SDS011;44652;49.040;12.126;2022-11-02T09:20:52;22.17;;;15.13;;
58874;SDS011;44652;49.040;12.126;2022-11-02T09:23:19;26.02;;;17.50;;
58874;SDS011;44652;49.040;12.126;2022-11-02T09:25:47;23.80;;;16.05;;
58874;SDS011;44652;49.040;12.126;2022-11-02T09:28:14;23.65;;;16.65;;
58874;SDS011;44652;49.040;12.126;2022-11-02T09:30:41;21.33;;;16.20;;
58874;SDS011;44652;49.040;12.126;2022-11-02T09:33:09;24.58;;;15.88;;
58874;SDS011;44652;49.040;12.126;2022-11-02T09:35:37;25.00;;;16.25;;
58874;SDS011;44652;49.040;12.126;2022-11-02T09:38:06;25.15;;;16.98;;
58874;SDS011;44652;49.040;12.126;2022-11-02T09:40:36;26.02;;;15.27;;
58874;SDS011;44652;49.040;12.126;2022-11-02T09:43:29;24.35;;;15.05;;
58874;SDS011;44652;49.040;12.126;2022-11-02T09:45:59;26.63;;;16.13;;
58874;SDS011;44652;49.040;12.126;2022-11-02T09:48:34;22.38;;;14.48;;
58874;SDS011;44652;49.040;12.126;2022-11-02T09:51:09;20.70;;;13.70;;
58874;SDS011;44652;49.040;12.126;2022-11-02T09:56:20;22.67;;;13.52;;
58874;SDS011;44652;49.040;12.126;2022-11-02T09:58:48;18.00;;;12.38;;
58874;SDS011;44652;49.040;12.126;2022-11-02T10:01:27;21.63;;;12.07;;
58874;SDS011;44652;49.040;12.126;2022-11-02T10:06:32;16.15;;;10.80;;
58874;SDS011;44652;49.040;12.126;2022-11-02T10:09:05;17.85;;;9.90;;
58874;SDS011;44652;49.040;12.126;2022-11-02T10:22:13;18.38;;;11.35;;
58874;SDS011;44652;49.040;12.126;2022-11-02T10:32:25;14.65;;;8.18;;
58874;SDS011;44652;49.040;12.126;2022-11-02T10:34:51;14.13;;;7.25;;
58874;SDS011;44652;49.040;12.126;2022-11-02T10:37:55;14.30;;;6.38;;
58874;SDS011;44652;49.040;12.126;2022-11-02T10:40:43;10.07;;;5.82;;
58874;SDS011;44652;49.040;12.126;2022-11-02T10:47:58;13.68;;;5.72;;
58874;SDS011;44652;49.040;12.126;2022-11-02T10:58:04;10.10;;;2.78;;
58874;SDS011;44652;49.040;12.126;2022-11-02T11:00:34;4.95;;;1.40;;
58874;SDS011;44652;49.040;12.126;2022-11-02T11:03:03;7.00;;;1.80;;
58874;SDS011;44652;49.040;12.126;2022-11-02T11:10:41;5.07;;;1.73;;
58874;SDS011;44652;49.040;12.126;2022-11-02T11:13:12;8.65;;;1.63;;
58874;SDS011;44652;49.040;12.126;2022-11-02T11:16:08;6.82;;;1.83;;
58874;SDS011;44652;49.040;12.126;2022-11-02T11:18:41;8.32;;;1.40;;
58874;SDS011;44652;49.040;12.126;2022-11-02T11:21:38;5.10;;;1.40;;
58874;SDS011;44652;49.040;12.126;2022-11-02T11:26:58;7.50;;;1.48;;
58874;SDS011;44652;49.040;12.126;2022-11-02T11:29:33;6.88;;;1.23;;
58874;SDS011;44652;49.040;12.126;2022-11-02T11:32:03;5.90;;;1.80;;
58874;SDS011;44652;49.040;12.126;2022-11-02T11:34:30;6.07;;;1.70;;
58874;SDS011;44652;49.040;12.126;2022-11-02T11:37:03;7.10;;;1.33;;
58874;SDS011;44652;49.040;12.126;2022-11-02T11:43:49;11.27;;;2.42;;
58874;SDS011;44652;49.040;12.126;2022-11-02T11:50:46;6.18;;;1.48;;
58874;SDS011;44652;49.040;12.126;2022-11-02T11:57:31;13.68;;;1.75;;
58874;SDS011;44652;49.040;12.126;2022-11-02T12:00:00;6.35;;;1.30;;
58874;SDS011;44652;49.040;12.126;2022-11-02T12:02:31;3.22;;;1.20;;
58874;SDS011;44652;49.040;12.126;2022-11-02T13:06:25;6.72;;;1.40;;
58874;SDS011;44652;49.040;12.126;2022-11-02T13:09:00;5.90;;;1.40;;
58874;SDS011;44652;49.040;12.126;2022-11-02T13:24:28;9.43;;;2.58;;
58874;SDS011;44652;49.040;12.126;2022-11-02T13:27:00;7.72;;;1.95;;
58874;SDS011;44652;49.040;12.126;2022-11-02T13:37:08;6.90;;;1.80;;
58874;SDS011;44652;49.040;12.126;2022-11-02T13:39:41;6.00;;;2.00;;
58874;SDS011;44652;49.040;12.126;2022-11-02T14:02:34;6.07;;;1.45;;
58874;SDS011;44652;49.040;12.126;2022-11-02T14:09:35;6.18;;;1.25;;
58874;SDS011;44652;49.040;12.126;2022-11-02T14:14:43;6.65;;;1.50;;
58874;SDS011;44652;49.040;12.126;2022-11-02T14:17:15;6.80;;;1.40;;
58874;SDS011;44652;49.040;12.126;2022-11-02T14:22:11;5.00;;;1.50;;
58874;SDS011;44652;49.040;12.126;2022-11-02T14:47:15;5.60;;;1.52;;
58874;SDS011;44652;49.040;12.126;2022-11-02T15:01:49;7.20;;;2.13;;
58874;SDS011;44652;49.040;12.126;2022-11-02T15:04:20;10.65;;;1.90;;
58874;SDS011;44652;49.040;12.126;2022-11-02T15:06:50;8.50;;;1.80;;
58874;SDS011;44652;49.040;12.126;2022-11-02T15:10:06;7.97;;;2.25;;
58874;SDS011;44652;49.040;12.126;2022-11-02T15:12:37;6.93;;;1.70;;
58874;SDS011;44652;49.040;12.126;2022-11-02T15:20:25;7.00;;;1.70;;
58874;SDS011;44652;49.040;12.126;2022-11-02T15:22:55;6.68;;;1.83;;
58874;SDS011;44652;49.040;12.126;2022-11-02T15:25:38;6.00;;;2.00;;
58874;SDS011;44652;49.040;12.126;2022-11-02T15:28:16;7.75;;;1.80;;
58874;SDS011;44652;49.040;12.126;2022-11-02T15:36:01;9.25;;;1.83;;
58874;SDS011;44652;49.040;12.126;2022-11-02T15:38:30;9.82;;;1.83;;
58874;SDS011;44652;49.040;12.126;2022-11-02T15:55:00;8.45;;;3.03;;
58874;SDS011;44652;49.040;12.126;2022-11-02T16:00:28;7.32;;;3.75;;
58874;SDS011;44652;49.040;12.126;2022-11-02T16:02:59;8.73;;;4.05;;
58874;SDS011;44652;49.040;12.126;2022-11-02T16:05:32;9.63;;;3.40;;
58874;SDS011;44652;49.040;12.126;2022-11-02T16:08:20;7.50;;;2.50;;
58874;SDS011;44652;49.040;12.126;2022-11-02T16:10:50;6.15;;;2.40;;
58874;SDS011;44652;49.040;12.126;2022-11-02T16:13:29;9.15;;;2.88;;
58874;SDS011;44652;49.040;12.126;2022-11-02T16:16:20;6.68;;;2.70;;
58874;SDS011;44652;49.040;12.126;2022-11-02T16:18:48;9.45;;;3.00;;
58874;SDS011;44652;49.040;12.126;2022-11-02T16:21:20;9.98;;;2.85;;
58874;SDS011;44652;49.040;12.126;2022-11-02T16:23:51;9.30;;;3.25;;
58874;SDS011;44652;49.040;12.126;2022-11-02T16:26:21;14.43;;;4.00;;
58874;SDS011;44652;49.040;12.126;2022-11-02T16:28:51;12.25;;;5.22;;
58874;SDS011;44652;49.040;12.126;2022-11-02T16:31:26;13.95;;;6.45;;
58874;SDS011;44652;49.040;12.126;2022-11-02T16:33:58;14.20;;;6.73;;
58874;SDS011;44652;49.040;12.126;2022-11-02T16:36:28;15.18;;;7.72;;
58874;SDS011;44652;49.040;12.126;2022-11-02T16:38:57;13.15;;;6.60;;
58874;SDS011;44652;49.040;12.126;2022-11-02T16:41:27;13.52;;;7.53;;
58874;SDS011;44652;49.040;12.126;2022-11-02T16:43:56;15.35;;;7.45;;
58874;SDS011;44652;49.040;12.126;2022-11-02T16:46:29;16.65;;;6.35;;
58874;SDS011;44652;49.040;12.126;2022-11-02T16:49:11;17.75;;;7.22;;
58874;SDS011;44652;49.040;12.126;2022-11-02T16:54:48;13.07;;;7.88;;
58874;SDS011;44652;49.040;12.126;2022-11-02T16:59:50;17.60;;;9.18;;
58874;SDS011;44652;49.040;12.126;2022-11-02T17:02:38;18.52;;;9.75;;
58874;SDS011;44652;49.040;12.126;2022-11-02T17:05:16;14.83;;;9.37;;
58874;SDS011;44652;49.040;12.126;2022-11-02T17:07:48;15.45;;;10.02;;
58874;SDS011;44652;49.040;12.126;2022-11-02T17:10:25;19.48;;;9.38;;
58874;SDS011;44652;49.040;12.126;2022-11-02T17:12:54;20.23;;;9.35;;
58874;SDS011;44652;49.040;12.126;2022-11-02T17:15:25;16.48;;;8.80;;
58874;SDS011;44652;49.040;12.126;2022-11-02T17:20:34;14.63;;;8.48;;
58874;SDS011;44652;49.040;12.126;2022-11-02T17:23:04;16.08;;;8.45;;
58874;SDS011;44652;49.040;12.126;2022-11-02T17:25:36;12.73;;;8.10;;
58874;SDS011;44652;49.040;12.126;2022-11-02T17:31:14;17.92;;;9.25;;
58874;SDS011;44652;49.040;12.126;2022-11-02T17:34:07;28.10;;;16.77;;
58874;SDS011;44652;49.040;12.126;2022-11-02T17:36:41;28.08;;;16.55;;
58874;SDS011;44652;49.040;12.126;2022-11-02T17:39:13;24.92;;;16.52;;
58874;SDS011;44652;49.040;12.126;2022-11-02T17:41:41;33.13;;;19.58;;
58874;SDS011;44652;49.040;12.126;2022-11-02T17:44:27;25.88;;;16.70;;
58874;SDS011;44652;49.040;12.126;2022-11-02T17:46:54;22.65;;;14.77;;
58874;SDS011;44652;49.040;12.126;2022-11-02T17:49:21;28.65;;;17.02;;
58874;SDS011;44652;49.040;12.126;2022-11-02T17:51:47;34.33;;;25.45;;
58874;SDS011;44652;49.040;12.126;2022-11-02T17:54:14;37.97;;;30.27;;
58874;SDS011;44652;49.040;12.126;2022-11-02T17:56:40;36.67;;;27.05;;
58874;SDS011;44652;49.040;12.126;2022-11-02T17:59:07;32.80;;;22.63;;
58874;SDS011;44652;49.040;12.126;2022-11-02T18:01:34;25.58;;;18.17;;
58874;SDS011;44652;49.040;12.126;2022-11-02T18:04:01;20.95;;;13.63;;
58874;SDS011;44652;49.040;12.126;2022-11-02T18:06:27;20.30;;;13.10;;
58874;SDS011;44652;49.040;12.126;2022-11-02T18:08:55;22.33;;;12.80;;
58874;SDS011;44652;49.040;12.126;2022-11-02T18:11:36;20.77;;;13.63;;
58874;SDS011;44652;49.040;12.126;2022-11-02T18:14:03;18.00;;;11.50;;
58874;SDS011;44652;49.040;12.126;2022-11-02T18:16:30;15.05;;;9.02;;
58874;SDS011;44652;49.040;12.126;2022-11-02T18:18:57;13.82;;;7.93;;
58874;SDS011;44652;49.040;12.126;2022-11-02T18:21:24;12.98;;;7.50;;
58874;SDS011;44652;49.040;12.126;2022-11-02T18:23:50;15.15;;;8.15;;
58874;SDS011;44652;49.040;12.126;2022-11-02T18:26:17;13.93;;;8.05;;
58874;SDS011;44652;49.040;12.126;2022-11-02T18:28:44;14.43;;;7.97;;
58874;SDS011;44652;49.040;12.126;2022-11-02T18:31:10;16.20;;;8.65;;
58874;SDS011;44652;49.040;12.126;2022-11-02T18:33:37;11.98;;;7.93;;
58874;SDS011;44652;49.040;12.126;2022-11-02T18:36:04;13.27;;;8.32;;
58874;SDS011;44652;49.040;12.126;2022-11-02T18:41:03;15.80;;;7.53;;
58874;SDS011;44652;49.040;12.126;2022-11-02T18:43:51;15.52;;;7.53;;
58874;SDS011;44652;49.040;12.126;2022-11-02T18:46:18;13.30;;;7.28;;
58874;SDS011;44652;49.040;12.126;2022-11-02T18:48:45;16.60;;;7.10;;
58874;SDS011;44652;49.040;12.126;2022-11-02T18:51:12;15.38;;;7.90;;
58874;SDS011;44652;49.040;12.126;2022-11-02T18:53:39;14.02;;;8.23;;
58874;SDS011;44652;49.040;12.126;2022-11-02T18:56:06;13.40;;;7.78;;
58874;SDS011;44652;49.040;12.126;2022-11-02T18:58:34;12.65;;;7.13;;
58874;SDS011;44652;49.040;12.126;2022-11-02T19:01:07;12.90;;;8.07;;
58874;SDS011;44652;49.040;12.126;2022-11-02T19:03:35;13.32;;;8.18;;
58874;SDS011;44652;49.040;12.126;2022-11-02T19:06:03;17.50;;;7.82;;
58874;SDS011;44652;49.040;12.126;2022-11-02T19:08:49;13.25;;;7.88;;
58874;SDS011;44652;49.040;12.126;2022-11-02T19:11:34;20.05;;;11.02;;
58874;SDS011;44652;49.040;12.126;2022-11-02T19:14:01;22.30;;;12.05;;
58874;SDS011;44652;49.040;12.126;2022-11-02T19:16:28;19.65;;;11.70;;
58874;SDS011;44652;49.040;12.126;2022-11-02T19:18:54;32.95;;;19.50;;
58874;SDS011;44652;49.040;12.126;2022-11-02T19:21:21;38.83;;;23.23;;
58874;SDS011;44652;49.040;12.126;2022-11-02T19:23:47;32.38;;;19.33;;
58874;SDS011;44652;49.040;12.126;2022-11-02T19:26:14;25.05;;;16.17;;
58874;SDS011;44652;49.040;12.126;2022-11-02T19:28:41;24.48;;;13.85;;
58874;SDS011;44652;49.040;12.126;2022-11-02T19:31:07;21.17;;;13.13;;
58874;SDS011;44652;49.040;12.126;2022-11-02T19:33:34;24.23;;;13.68;;
58874;SDS011;44652;49.040;12.126;2022-11-02T19:36:01;27.55;;;16.02;;
58874;SDS011;44652;49.040;12.126;2022-11-02T19:38:27;27.02;;;15.30;;
58874;SDS011;44652;49.040;12.126;2022-11-02T19:41:01;22.88;;;13.60;;
58874;SDS011;44652;49.040;12.126;2022-11-02T19:43:35;20.73;;;13.60;;
58874;SDS011;44652;49.040;12.126;2022-11-02T19:46:04;20.50;;;12.20;;
58874;SDS011;44652;49.040;12.126;2022-11-02T19:48:33;16.58;;;10.38;;
58874;SDS011;44652;49.040;12.126;2022-11-02T19:53:40;17.02;;;9.25;;
58874;SDS011;44652;49.040;12.126;2022-11-02T19:58:36;16.65;;;9.52;;
58874;SDS011;44652;49.040;12.126;2022-11-02T20:01:05;15.70;;;8.70;;
58874;SDS011;44652;49.040;12.126;2022-11-02T20:03:32;17.40;;;8.13;;
58874;SDS011;44652;49.040;12.126;2022-11-02T20:05:59;13.02;;;7.85;;
58874;SDS011;44652;49.040;12.126;2022-11-02T20:08:27;18.98;;;10.27;;
58874;SDS011;44652;49.040;12.126;2022-11-02T20:11:00;18.80;;;10.95;;
58874;SDS011;44652;49.040;12.126;2022-11-02T20:13:38;21.60;;;10.73;;
58874;SDS011;44652;49.040;12.126;2022-11-02T20:16:07;19.95;;;11.25;;
58874;SDS011;44652;49.040;12.126;2022-11-02T20:18:35;19.58;;;10.95;;
58874;SDS011;44652;49.040;12.126;2022-11-02T20:21:11;17.60;;;9.50;;
58874;SDS011;44652;49.040;12.126;2022-11-02T20:23:43;17.55;;;9.50;;
58874;SDS011;44652;49.040;12.126;2022-11-02T20:26:14;15.05;;;9.93;;
58874;SDS011;44652;49.040;12.126;2022-11-02T20:28:44;15.50;;;8.57;;
58874;SDS011;44652;49.040;12.126;2022-11-02T20:31:17;18.55;;;10.43;;
58874;SDS011;44652;49.040;12.126;2022-11-02T20:33:45;17.77;;;9.98;;
58874;SDS011;44652;49.040;12.126;2022-11-02T20:36:13;15.07;;;8.45;;
58874;SDS011;44652;49.040;12.126;2022-11-02T20:38:40;16.27;;;8.50;;
58874;SDS011;44652;49.040;12.126;2022-11-02T20:41:08;16.27;;;8.20;;
58874;SDS011;44652;49.040;12.126;2022-11-02T20:43:37;12.25;;;7.82;;
58874;SDS011;44652;49.040;12.126;2022-11-02T20:46:16;18.08;;;8.40;;
58874;SDS011;44652;49.040;12.126;2022-11-02T20:49:04;15.50;;;8.02;;
58874;SDS011;44652;49.040;12.126;2022-11-02T20:51:50;13.05;;;7.63;;
58874;SDS011;44652;49.040;12.126;2022-11-02T20:54:17;15.73;;;7.93;;
58874;SDS011;44652;49.040;12.126;2022-11-02T20:56:45;16.08;;;9.07;;
58874;SDS011;44652;49.040;12.126;2022-11-02T20:59:12;13.77;;;7.78;;
58874;SDS011;44652;49.040;12.126;2022-11-02T21:01:39;15.32;;;8.25;;
58874;SDS011;44652;49.040;12.126;2022-11-02T21:04:06;18.98;;;9.30;;
58874;SDS011;44652;49.040;12.126;2022-11-02T21:06:33;12.73;;;7.25;;
58874;SDS011;44652;49.040;12.126;2022-11-02T21:08:59;14.20;;;7.50;;
58874;SDS011;44652;49.040;12.126;2022-11-02T21:11:26;14.55;;;7.70;;
58874;SDS011;44652;49.040;12.126;2022-11-02T21:14:11;16.25;;;8.07;;
58874;SDS011;44652;49.040;12.126;2022-11-02T21:16:38;17.13;;;9.80;;
58874;SDS011;44652;49.040;12.126;2022-11-02T21:19:04;18.38;;;10.27;;
58874;SDS011;44652;49.040;12.126;2022-11-02T21:21:31;17.75;;;10.57;;
58874;SDS011;44652;49.040;12.126;2022-11-02T21:23:58;15.77;;;10.32;;
58874;SDS011;44652;49.040;12.126;2022-11-02T21:26:25;17.83;;;10.93;;
58874;SDS011;44652;49.040;12.126;2022-11-02T21:28:52;20.10;;;11.50;;
58874;SDS011;44652;49.040;12.126;2022-11-02T21:31:19;15.55;;;11.13;;
58874;SDS011;44652;49.040;12.126;2022-11-02T21:33:47;20.58;;;12.38;;
58874;SDS011;44652;49.040;12.126;2022-11-02T21:36:15;19.35;;;13.75;;
58874;SDS011;44652;49.040;12.126;2022-11-02T21:38:43;21.65;;;13.93;;
58874;SDS011;44652;49.040;12.126;2022-11-02T21:41:12;21.67;;;12.15;;
58874;SDS011;44652;49.040;12.126;2022-11-02T21:43:45;20.50;;;13.07;;
58874;SDS011;44652;49.040;12.126;2022-11-02T21:46:11;21.80;;;11.82;;
58874;SDS011;44652;49.040;12.126;2022-11-02T21:48:38;18.80;;;10.35;;
58874;SDS011;44652;49.040;12.126;2022-11-02T21:53:34;14.65;;;7.63;;
58874;SDS011;44652;49.040;12.126;2022-11-02T21:56:07;15.43;;;6.88;;
58874;SDS011;44652;49.040;12.126;2022-11-02T21:58:35;15.20;;;8.93;;
58874;SDS011;44652;49.040;12.126;2022-11-02T22:01:14;18.48;;;9.32;;
58874;SDS011;44652;49.040;12.126;2022-11-02T22:04:01;16.85;;;8.00;;
58874;SDS011;44652;49.040;12.126;2022-11-02T22:06:29;12.93;;;7.53;;
58874;SDS011;44652;49.040;12.126;2022-11-02T22:08:57;14.25;;;7.97;;
58874;SDS011;44652;49.040;12.126;2022-11-02T22:11:25;14.73;;;8.10;;
58874;SDS011;44652;49.040;12.126;2022-11-02T22:13:53;14.60;;;8.30;;
58874;SDS011;44652;49.040;12.126;2022-11-02T22:16:25;17.20;;;9.32;;
58874;SDS011;44652;49.040;12.126;2022-11-02T22:18:55;17.13;;;10.18;;
58874;SDS011;44652;49.040;12.126;2022-11-02T22:21:33;18.77;;;8.98;;
58874;SDS011;44652;49.040;12.126;2022-11-02T22:24:01;14.27;;;7.88;;
58874;SDS011;44652;49.040;12.126;2022-11-02T22:26:29;14.93;;;7.43;;
58874;SDS011;44652;49.040;12.126;2022-11-02T22:28:57;24.60;;;13.02;;
58874;SDS011;44652;49.040;12.126;2022-11-02T22:33:57;22.63;;;11.30;;
58874;SDS011;44652;49.040;12.126;2022-11-02T22:36:29;22.10;;;11.07;;
58874;SDS011;44652;49.040;12.126;2022-11-02T22:38:57;17.90;;;9.63;;
58874;SDS011;44652;49.040;12.126;2022-11-02T22:41:26;17.05;;;9.40;;
58874;SDS011;44652;49.040;12.126;2022-11-02T22:44:07;20.48;;;10.70;;
58874;SDS011;44652;49.040;12.126;2022-11-02T22:46:35;23.55;;;11.43;;
58874;SDS011;44652;49.040;12.126;2022-11-02T22:49:05;19.48;;;10.25;;
58874;SDS011;44652;49.040;12.126;2022-11-02T22:51:34;18.17;;;9.50;;
58874;SDS011;44652;49.040;12.126;2022-11-02T22:54:04;17.58;;;10.00;;
58874;SDS011;44652;49.040;12.126;2022-11-02T22:56:32;16.92;;;7.32;;
58874;SDS011;44652;49.040;12.126;2022-11-02T22:58:59;15.43;;;6.87;;
58874;SDS011;44652;49.040;12.126;2022-11-02T23:01:27;11.57;;;6.97;;
58874;SDS011;44652;49.040;12.126;2022-11-02T23:03:55;12.32;;;6.50;;
58874;SDS011;44652;49.040;12.126;2022-11-02T23:06:23;14.13;;;6.35;;
